createdAt,value
2019-02-11T00:01:51.688Z,0.60
2019-02-11T00:04:21.190Z,1.20
2019-02-11T00:06:52.005Z,1.03
2019-02-11T00:09:22.210Z,1.37
2019-02-11T00:11:51.294Z,1.00
2019-02-11T00:14:20.403Z,1.00
2019-02-11T00:16:51.213Z,1.20
2019-02-11T00:19:20.335Z,1.37
2019-02-11T00:21:50.570Z,0.93
2019-02-11T00:24:19.659Z,0.80
2019-02-11T00:26:53.247Z,1.40
2019-02-11T00:29:22.333Z,1.10
2019-02-11T00:31:51.421Z,1.07
2019-02-11T00:34:20.520Z,1.37
2019-02-11T00:36:50.687Z,1.57
2019-02-11T00:39:19.765Z,1.50
2019-02-11T00:41:48.904Z,1.40
2019-02-11T00:44:21.695Z,1.20
2019-02-11T00:46:51.098Z,1.40
2019-02-11T00:49:24.653Z,1.20
2019-02-11T00:51:53.801Z,1.57
2019-02-11T00:54:22.936Z,1.00
2019-02-11T00:56:52.037Z,1.83
2019-02-11T00:59:22.443Z,1.50
2019-02-11T01:01:55.989Z,1.37
2019-02-11T01:04:25.139Z,0.80
2019-02-11T01:06:54.390Z,1.20
2019-02-11T01:09:23.512Z,0.90
2019-02-11T01:11:52.609Z,1.70
2019-02-11T01:14:26.858Z,1.93
2019-02-11T01:16:58.460Z,1.17
2019-02-11T01:19:27.568Z,1.10
2019-02-11T01:21:56.672Z,1.23
2019-02-11T01:24:25.861Z,0.90
2019-02-11T01:26:55.978Z,1.67
2019-02-11T01:29:26.594Z,1.30
2019-02-11T01:31:55.746Z,1.27
2019-02-11T01:34:24.900Z,1.33
2019-02-11T01:36:54.368Z,1.60
2019-02-11T01:39:23.469Z,1.57
2019-02-11T01:41:54.059Z,1.13
2019-02-11T01:44:23.194Z,1.37
2019-02-11T01:46:53.990Z,1.13
2019-02-11T01:49:24.105Z,1.67
2019-02-11T01:51:56.528Z,1.30
2019-02-11T01:54:25.599Z,1.60
2019-02-11T01:56:55.933Z,1.40
2019-02-11T01:59:27.463Z,2.10
2019-02-11T02:01:56.571Z,1.50
2019-02-11T02:04:26.083Z,1.27
2019-02-11T02:06:56.924Z,0.90
2019-02-11T02:09:27.074Z,1.13
2019-02-11T02:11:57.057Z,1.53
2019-02-11T02:14:43.844Z,1.27
2019-02-11T02:17:12.998Z,1.00
2019-02-11T02:19:42.090Z,1.43
2019-02-11T02:22:12.314Z,1.60
2019-02-11T02:24:41.434Z,1.13
2019-02-11T02:27:11.639Z,1.13
2019-02-11T02:29:44.639Z,1.57
2019-02-11T02:32:16.304Z,1.50
2019-02-11T02:34:45.460Z,1.60
2019-02-11T02:37:16.516Z,1.60
2019-02-11T02:39:45.905Z,1.43
2019-02-11T02:42:16.273Z,1.40
2019-02-11T02:44:48.326Z,1.40
2019-02-11T02:47:17.425Z,1.93
2019-02-11T02:49:46.532Z,1.27
2019-02-11T02:52:21.776Z,1.63
2019-02-11T02:54:50.970Z,1.67
2019-02-11T02:57:20.388Z,1.13
2019-02-11T02:59:52.054Z,1.60
2019-02-11T03:02:22.323Z,1.30
2019-02-11T03:04:51.322Z,1.50
2019-02-11T03:07:20.398Z,1.27
2019-02-11T03:09:51.536Z,1.33
2019-02-11T03:12:20.987Z,1.70
2019-02-11T03:14:51.339Z,1.30
2019-02-11T03:17:20.423Z,1.67
2019-02-11T03:19:49.518Z,1.03
2019-02-11T03:22:18.617Z,1.03
2019-02-11T03:24:47.699Z,1.67
2019-02-11T03:27:16.840Z,1.57
2019-02-11T03:29:46.390Z,0.97
2019-02-11T03:32:20.592Z,1.03
2019-02-11T03:34:51.407Z,1.57
2019-02-11T03:37:22.204Z,1.00
2019-02-11T03:39:51.290Z,1.70
2019-02-11T03:42:20.425Z,1.80
2019-02-11T03:44:49.963Z,2.00
2019-02-11T03:47:20.476Z,1.53
2019-02-11T03:49:51.523Z,1.70
2019-02-11T03:52:21.702Z,1.40
2019-02-11T03:54:54.709Z,2.47
2019-02-11T03:57:28.821Z,2.57
2019-02-11T03:59:58.919Z,1.50
2019-02-11T04:02:27.979Z,1.73
2019-02-11T04:04:59.566Z,1.77
2019-02-11T04:07:28.680Z,1.77
2019-02-11T04:09:57.765Z,1.87
2019-02-11T04:12:27.018Z,2.00
2019-02-11T04:14:59.620Z,2.30
2019-02-11T04:17:31.625Z,2.03
2019-02-11T04:20:04.022Z,1.40
2019-02-11T04:22:34.263Z,1.80
2019-02-11T04:25:03.337Z,1.97
2019-02-11T04:27:33.507Z,1.43
2019-02-11T04:30:02.617Z,1.63
2019-02-11T04:32:31.668Z,1.93
2019-02-11T04:35:00.783Z,1.90
2019-02-11T04:37:31.453Z,1.90
2019-02-11T04:40:00.861Z,2.00
2019-02-11T04:42:32.591Z,1.67
2019-02-11T04:45:01.688Z,2.33
2019-02-11T04:47:30.793Z,1.80
2019-02-11T04:50:00.874Z,2.40
2019-02-11T04:52:32.127Z,2.10
2019-02-11T04:55:05.543Z,1.77
2019-02-11T04:57:37.043Z,2.20
2019-02-11T05:00:09.926Z,1.43
2019-02-11T05:02:39.034Z,1.73
2019-02-11T05:05:15.011Z,1.50
2019-02-11T05:07:44.172Z,1.60
2019-02-11T05:10:13.362Z,2.03
2019-02-11T05:12:44.968Z,1.83
2019-02-11T05:15:17.059Z,1.70
2019-02-11T05:17:49.233Z,1.77
2019-02-11T05:20:18.416Z,2.03
2019-02-11T05:22:47.565Z,1.63
2019-02-11T05:25:18.335Z,1.50
2019-02-11T05:27:50.902Z,1.50
2019-02-11T05:30:20.360Z,2.20
2019-02-11T05:32:51.717Z,1.80
2019-02-11T05:35:20.808Z,1.83
2019-02-11T05:37:50.329Z,2.07
2019-02-11T05:40:22.089Z,1.87
2019-02-11T05:42:52.322Z,1.53
2019-02-11T05:45:25.783Z,2.20
2019-02-11T05:47:59.426Z,1.70
2019-02-11T05:50:30.075Z,1.97
2019-02-11T05:52:59.919Z,1.60
2019-02-11T05:55:29.605Z,1.40
2019-02-11T05:58:00.268Z,2.00
2019-02-11T06:00:29.475Z,2.47
2019-02-11T06:02:59.648Z,1.50
2019-02-11T06:05:31.593Z,1.97
2019-02-11T06:08:03.963Z,2.07
2019-02-11T06:10:33.074Z,1.73
2019-02-11T06:13:09.005Z,2.03
2019-02-11T06:15:40.796Z,1.43
2019-02-11T06:18:09.887Z,2.63
2019-02-11T06:20:38.984Z,1.77
2019-02-11T06:23:10.138Z,1.83
2019-02-11T06:25:40.948Z,1.90
2019-02-11T06:28:10.129Z,2.10
2019-02-11T06:30:39.246Z,1.50
2019-02-11T06:33:09.769Z,2.20
2019-02-11T06:35:38.979Z,3.47
2019-02-11T06:38:08.309Z,2.10
2019-02-11T06:40:37.489Z,1.63
2019-02-11T06:43:07.005Z,2.40
2019-02-11T06:45:38.559Z,1.97
2019-02-11T06:48:07.654Z,1.73
2019-02-11T06:50:37.166Z,2.30
2019-02-11T06:53:08.098Z,1.83
2019-02-11T06:55:37.978Z,1.73
2019-02-11T06:58:08.729Z,2.17
2019-02-11T07:00:43.172Z,1.67
2019-02-11T07:03:13.874Z,1.70
2019-02-11T07:05:44.959Z,1.93
2019-02-11T07:08:14.110Z,1.80
2019-02-11T07:10:43.553Z,2.70
2019-02-11T07:13:16.512Z,2.17
2019-02-11T07:15:46.924Z,1.97
2019-02-11T07:18:18.402Z,1.50
2019-02-11T07:20:47.975Z,2.23
2019-02-11T07:23:18.799Z,1.90
2019-02-11T07:25:52.375Z,2.33
2019-02-11T07:28:27.620Z,2.30
2019-02-11T07:30:56.963Z,1.90
2019-02-11T07:33:26.182Z,1.40
2019-02-11T07:35:58.685Z,2.17
2019-02-11T07:38:30.994Z,2.80
2019-02-11T07:41:07.882Z,1.90
2019-02-11T07:43:44.539Z,2.33
2019-02-11T07:46:20.442Z,1.97
2019-02-11T07:48:50.640Z,1.60
2019-02-11T07:51:21.578Z,2.00
2019-02-11T07:53:50.862Z,1.80
2019-02-11T07:56:21.797Z,2.00
2019-02-11T07:58:51.753Z,2.03
2019-02-11T08:01:23.786Z,2.63
2019-02-11T08:03:52.935Z,1.70
2019-02-11T08:06:22.555Z,2.40
2019-02-11T08:08:51.668Z,2.13
2019-02-11T08:11:20.774Z,2.10
2019-02-11T08:13:50.300Z,2.00
2019-02-11T08:16:21.306Z,2.00
2019-02-11T08:18:52.309Z,2.10
2019-02-11T08:21:22.169Z,2.07
2019-02-11T08:23:51.529Z,1.90
2019-02-11T08:26:23.075Z,2.00
2019-02-11T08:28:52.183Z,1.93
2019-02-11T08:31:21.257Z,1.80
2019-02-11T08:33:50.609Z,1.97
2019-02-11T08:36:21.528Z,3.63
2019-02-11T08:38:50.851Z,1.60
2019-02-11T08:41:22.520Z,1.93
2019-02-11T08:43:51.692Z,1.40
2019-02-11T08:46:22.527Z,1.40
2019-02-11T08:48:52.103Z,1.63
2019-02-11T08:51:26.131Z,1.40
2019-02-11T08:53:55.782Z,1.70
2019-02-11T08:56:26.008Z,2.10
2019-02-11T08:58:56.306Z,2.30
2019-02-11T09:01:27.281Z,1.73
2019-02-11T09:04:00.607Z,0.93
2019-02-11T09:06:35.235Z,1.43
2019-02-11T09:09:05.551Z,1.60
2019-02-11T09:11:45.224Z,1.60
2019-02-11T09:14:14.374Z,1.27
2019-02-11T09:16:44.198Z,1.87
2019-02-11T09:19:18.419Z,1.67
2019-02-11T09:21:48.268Z,1.47
2019-02-11T09:24:22.797Z,1.10
2019-02-11T09:26:53.060Z,1.93
2019-02-11T09:29:23.923Z,1.17
2019-02-11T09:31:54.412Z,1.40
2019-02-11T09:34:24.259Z,1.60
2019-02-11T09:36:53.801Z,1.33
2019-02-11T09:39:22.938Z,1.50
2019-02-11T09:41:52.049Z,1.80
2019-02-11T09:44:29.463Z,1.63
2019-02-11T09:47:15.294Z,1.70
2019-02-11T09:49:44.442Z,1.43
2019-02-11T09:52:19.617Z,1.60
2019-02-11T09:54:50.257Z,1.30
2019-02-11T09:57:19.431Z,1.47
2019-02-11T09:59:52.442Z,1.10
2019-02-11T10:02:24.169Z,1.53
2019-02-11T10:04:59.185Z,1.10
2019-02-11T10:07:30.886Z,1.50
2019-02-11T10:10:01.213Z,1.50
2019-02-11T10:12:31.075Z,2.23
2019-02-11T10:15:01.142Z,1.83
2019-02-11T10:17:30.492Z,1.17
2019-02-11T10:19:59.956Z,1.20
2019-02-11T10:22:30.626Z,1.60
2019-02-11T10:24:59.812Z,1.20
2019-02-11T10:27:33.525Z,1.43
2019-02-11T10:30:03.881Z,1.63
2019-02-11T10:32:35.250Z,1.27
2019-02-11T10:35:09.282Z,2.10
2019-02-11T10:37:38.409Z,1.30
2019-02-11T10:40:12.671Z,1.60
2019-02-11T10:42:42.931Z,1.90
2019-02-11T10:45:14.602Z,1.37
2019-02-11T10:47:44.581Z,1.07
2019-02-11T10:50:14.725Z,1.70
2019-02-11T10:52:43.849Z,1.60
2019-02-11T10:55:22.117Z,1.37
2019-02-11T10:57:54.952Z,1.50
2019-02-11T11:00:24.947Z,2.47
2019-02-11T11:02:54.290Z,1.50
2019-02-11T11:05:29.962Z,1.60
2019-02-11T11:08:00.478Z,1.60
2019-02-11T11:10:34.086Z,2.40
2019-02-11T11:13:13.872Z,1.97
2019-02-11T11:15:43.603Z,2.20
2019-02-11T11:18:12.799Z,2.47
2019-02-11T11:20:48.259Z,1.80
2019-02-11T11:23:17.766Z,2.50
2019-02-11T11:25:48.339Z,2.20
2019-02-11T11:28:18.294Z,1.83
2019-02-11T11:30:52.385Z,2.17
2019-02-11T11:33:23.456Z,1.50
2019-02-11T11:36:12.814Z,2.40
2019-02-11T11:38:41.909Z,2.00
2019-02-11T11:41:11.007Z,2.80
2019-02-11T11:43:40.902Z,1.50
2019-02-11T11:46:12.904Z,2.60
2019-02-11T11:48:47.483Z,2.23
2019-02-11T11:51:18.454Z,1.60
2019-02-11T11:53:48.519Z,2.40
2019-02-11T11:56:21.896Z,3.03
2019-02-11T11:58:51.193Z,2.43
2019-02-11T12:01:28.181Z,2.80
2019-02-11T12:03:57.795Z,2.40
2019-02-11T12:06:28.179Z,2.80
2019-02-11T12:09:05.702Z,1.80
2019-02-11T12:11:34.816Z,2.17
2019-02-11T12:14:05.342Z,1.77
2019-02-11T12:16:34.864Z,1.90
2019-02-11T12:19:04.023Z,1.73
2019-02-11T12:21:38.335Z,1.67
2019-02-11T12:24:15.029Z,1.93
2019-02-11T12:26:45.446Z,1.93
2019-02-11T12:29:18.546Z,1.50
2019-02-11T12:31:48.770Z,2.13
2019-02-11T12:34:18.355Z,1.47
2019-02-11T12:36:47.460Z,1.30
2019-02-11T12:39:21.293Z,1.70
2019-02-11T12:41:50.757Z,1.70
2019-02-11T12:44:30.524Z,1.90
2019-02-11T12:47:13.369Z,1.90
2019-02-11T12:49:36.050Z,1.80
2019-02-11T12:52:05.207Z,1.83
2019-02-11T12:54:38.791Z,1.90
2019-02-11T12:57:08.212Z,2.07
2019-02-11T12:59:40.743Z,2.30
2019-02-11T13:02:16.027Z,1.70
2019-02-11T13:04:45.362Z,1.77
2019-02-11T13:07:30.948Z,2.07
2019-02-11T13:10:03.578Z,2.00
2019-02-11T13:12:35.826Z,2.10
2019-02-11T13:15:08.356Z,2.20
2019-02-11T13:17:40.486Z,1.60
2019-02-11T13:20:12.067Z,2.20
2019-02-11T13:22:42.925Z,1.63
2019-02-11T13:25:15.045Z,1.73
2019-02-11T13:27:56.914Z,1.60
2019-02-11T13:30:27.469Z,1.97
2019-02-11T13:33:00.387Z,2.30
2019-02-11T13:35:30.100Z,1.60
2019-02-11T13:38:05.909Z,1.83
2019-02-11T13:40:39.394Z,2.33
2019-02-11T13:43:12.244Z,2.23
2019-02-11T13:45:44.730Z,2.63
2019-02-11T13:48:14.524Z,1.90
2019-02-11T13:50:46.611Z,1.63
2019-02-11T13:53:17.105Z,1.67
2019-02-11T13:55:51.423Z,1.53
2019-02-11T13:58:20.559Z,2.10
2019-02-11T14:00:50.765Z,1.10
2019-02-11T14:03:21.894Z,1.23
2019-02-11T14:05:51.116Z,1.30
2019-02-11T14:08:22.805Z,1.53
2019-02-11T14:10:52.038Z,2.20
2019-02-11T14:13:24.033Z,1.40
2019-02-11T14:15:54.425Z,1.13
2019-02-11T14:18:25.162Z,0.93
2019-02-11T14:20:54.258Z,1.10
2019-02-11T14:23:23.510Z,1.90
2019-02-11T14:25:55.436Z,1.87
2019-02-11T14:28:35.101Z,1.23
2019-02-11T14:31:09.285Z,1.77
2019-02-11T14:33:46.391Z,1.23
2019-02-11T14:36:16.480Z,1.60
2019-02-11T14:38:46.004Z,1.80
2019-02-11T14:41:17.992Z,2.60
2019-02-11T14:43:48.795Z,1.50
2019-02-11T14:46:19.177Z,1.80
2019-02-11T14:48:51.158Z,2.17
2019-02-11T14:51:24.250Z,2.43
2019-02-11T14:53:53.848Z,2.03
2019-02-11T14:56:24.876Z,1.50
2019-02-11T14:58:53.987Z,1.23
2019-02-11T15:01:23.285Z,2.50
2019-02-11T15:03:55.439Z,2.60
2019-02-11T15:06:31.218Z,2.00
2019-02-11T15:09:01.751Z,2.40
2019-02-11T15:11:33.393Z,1.23
2019-02-11T15:14:03.289Z,1.70
2019-02-11T15:16:32.442Z,2.07
2019-02-11T15:19:01.513Z,1.43
2019-02-11T15:21:30.866Z,1.50
2019-02-11T15:24:01.333Z,1.77
2019-02-11T15:26:35.682Z,1.93
2019-02-11T15:29:06.589Z,2.13
2019-02-11T15:31:35.952Z,2.30
2019-02-11T15:34:06.332Z,3.00
2019-02-11T15:36:35.428Z,2.90
2019-02-11T15:39:06.261Z,2.03
2019-02-11T15:41:36.577Z,1.97
2019-02-11T15:44:09.948Z,2.43
2019-02-11T15:46:45.125Z,2.13
2019-02-11T15:49:14.248Z,2.37
2019-02-11T15:51:45.883Z,1.73
2019-02-11T15:54:20.400Z,2.50
2019-02-11T15:56:49.605Z,1.90
2019-02-11T15:59:18.784Z,1.80
2019-02-11T16:01:50.776Z,1.87
2019-02-11T16:04:21.469Z,2.10
2019-02-11T16:06:56.084Z,2.37
2019-02-11T16:09:28.655Z,1.97
2019-02-11T16:11:57.836Z,2.40
2019-02-11T16:14:26.924Z,2.23
2019-02-11T16:16:57.417Z,2.57
2019-02-11T16:19:26.977Z,1.73
2019-02-11T16:21:56.124Z,2.30
2019-02-11T16:24:26.645Z,2.07
2019-02-11T16:26:59.164Z,2.50
2019-02-11T16:29:28.303Z,2.23
2019-02-11T16:32:00.677Z,2.23
2019-02-11T16:34:36.402Z,2.07
2019-02-11T16:37:05.804Z,2.33
2019-02-11T16:39:34.898Z,2.90
2019-02-11T16:42:06.062Z,2.43
2019-02-11T16:44:37.370Z,2.73
2019-02-11T16:47:08.739Z,2.27
2019-02-11T16:49:38.888Z,2.10
2019-02-11T16:52:10.733Z,3.37
2019-02-11T16:54:39.815Z,2.63
2019-02-11T16:57:08.951Z,3.13
2019-02-11T16:59:38.450Z,4.67
2019-02-11T17:02:07.626Z,4.63
2019-02-11T17:04:39.009Z,3.80
2019-02-11T17:07:08.180Z,2.73
2019-02-11T17:09:38.596Z,2.80
2019-02-11T17:12:07.772Z,2.93
2019-02-11T17:14:37.355Z,2.60
2019-02-11T17:17:06.791Z,2.97
2019-02-11T17:19:35.886Z,2.27
2019-02-11T17:22:07.531Z,2.67
2019-02-11T17:24:36.638Z,3.10
2019-02-11T17:27:05.826Z,2.50
2019-02-11T17:29:34.894Z,2.87
2019-02-11T17:32:06.556Z,2.73
2019-02-11T17:34:35.773Z,2.63
2019-02-11T17:37:04.869Z,2.70
2019-02-11T17:39:34.407Z,3.30
2019-02-11T17:42:05.428Z,2.90
2019-02-11T17:44:42.393Z,3.30
2019-02-11T17:47:13.295Z,3.23
2019-02-11T17:49:43.925Z,3.10
2019-02-11T17:52:34.425Z,2.83
2019-02-11T17:55:07.665Z,2.30
2019-02-11T17:57:36.780Z,2.90
2019-02-11T18:00:07.768Z,2.90
2019-02-11T18:02:36.910Z,2.70
2019-02-11T18:05:08.282Z,2.80
2019-02-11T18:07:42.673Z,2.83
2019-02-11T18:10:13.499Z,2.73
2019-02-11T18:12:45.677Z,2.23
2019-02-11T18:15:14.794Z,2.00
2019-02-11T18:17:47.873Z,2.83
2019-02-11T18:20:16.963Z,2.70
2019-02-11T18:22:46.047Z,2.43
2019-02-11T18:25:15.740Z,2.30
2019-02-11T18:27:48.079Z,2.13
2019-02-11T18:30:21.012Z,2.40
2019-02-11T18:32:50.207Z,2.50
2019-02-11T18:35:20.631Z,2.60
2019-02-11T18:37:56.143Z,3.43
2019-02-11T18:40:28.411Z,3.20
2019-02-11T18:42:58.935Z,2.50
2019-02-11T18:45:43.522Z,2.07
2019-02-11T18:48:12.656Z,2.57
2019-02-11T18:50:43.199Z,5.33
2019-02-11T18:53:13.957Z,3.00
2019-02-11T18:55:49.082Z,3.70
2019-02-11T18:58:21.226Z,4.27
2019-02-11T19:00:50.412Z,3.80
2019-02-11T19:03:19.680Z,3.13
2019-02-11T19:05:51.764Z,3.90
2019-02-11T19:08:20.915Z,2.60
2019-02-11T19:10:50.132Z,2.23
2019-02-11T19:13:19.537Z,2.90
2019-02-11T19:15:50.468Z,3.20
2019-02-11T19:18:23.411Z,3.20
2019-02-11T19:20:55.348Z,3.83
2019-02-11T19:23:24.458Z,3.13
2019-02-11T19:25:55.232Z,3.50
2019-02-11T19:28:25.483Z,2.87
2019-02-11T19:30:56.978Z,2.93
2019-02-11T19:33:34.586Z,2.70
2019-02-11T19:36:03.769Z,3.43
2019-02-11T19:38:34.295Z,3.03
2019-02-11T19:41:03.528Z,3.40
2019-02-11T19:43:35.216Z,3.40
2019-02-11T19:46:05.728Z,2.53
2019-02-11T19:48:37.720Z,2.87
2019-02-11T19:51:09.613Z,2.70
2019-02-11T19:53:41.161Z,2.50
2019-02-11T19:56:18.641Z,3.30
2019-02-11T19:58:49.054Z,3.40
2019-02-11T20:01:21.831Z,10.53
2019-02-11T20:03:52.710Z,4.10
2019-02-11T20:06:21.917Z,2.63
2019-02-11T20:08:52.585Z,2.97
2019-02-11T20:11:24.678Z,3.40
2019-02-11T20:13:53.818Z,3.50
2019-02-11T20:16:22.917Z,2.60
2019-02-11T20:18:54.163Z,2.13
2019-02-11T20:21:25.898Z,2.83
2019-02-11T20:23:57.202Z,5.20
2019-02-11T20:26:26.486Z,3.60
2019-02-11T20:28:57.734Z,3.23
2019-02-11T20:31:29.641Z,3.70
2019-02-11T20:34:02.060Z,2.60
2019-02-11T20:36:31.232Z,4.40
2019-02-11T20:39:04.616Z,3.67
2019-02-11T20:41:36.749Z,3.70
2019-02-11T20:44:09.136Z,3.30
2019-02-11T20:46:39.905Z,3.80
2019-02-11T20:49:13.466Z,3.53
2019-02-11T20:51:42.580Z,4.60
2019-02-11T20:54:11.703Z,2.40
2019-02-11T20:56:41.182Z,3.00
2019-02-11T20:59:13.014Z,2.20
2019-02-11T21:01:43.715Z,2.20
2019-02-11T21:04:12.884Z,2.30
2019-02-11T21:06:42.415Z,1.93
2019-02-11T21:09:15.418Z,1.70
2019-02-11T21:11:51.485Z,3.07
2019-02-11T21:14:24.484Z,2.00
2019-02-11T21:16:54.848Z,2.30
2019-02-11T21:19:26.319Z,1.97
2019-02-11T21:21:57.538Z,1.70
2019-02-11T21:24:26.392Z,1.93
2019-02-11T21:26:55.520Z,2.13
2019-02-11T21:29:24.907Z,1.10
2019-02-11T21:31:54.006Z,6.47
2019-02-11T21:34:24.897Z,1.40
2019-02-11T21:36:55.112Z,1.40
2019-02-11T21:39:26.059Z,1.40
2019-02-11T21:41:58.543Z,1.77
2019-02-11T21:44:30.626Z,1.60
2019-02-11T21:46:59.794Z,2.40
2019-02-11T21:49:30.447Z,3.00
2019-02-11T21:52:01.633Z,1.97
2019-02-11T21:54:33.125Z,2.27
2019-02-11T21:57:02.232Z,1.73
2019-02-11T21:59:33.226Z,1.90
2019-02-11T22:02:02.839Z,1.83
2019-02-11T22:04:34.819Z,2.13
2019-02-11T22:07:10.043Z,2.70
2019-02-11T22:09:42.496Z,2.90
2019-02-11T22:12:11.604Z,1.90
2019-02-11T22:14:40.710Z,2.30
2019-02-11T22:17:10.935Z,2.27
2019-02-11T22:19:41.463Z,3.23
2019-02-11T22:22:13.508Z,2.83
2019-02-11T22:24:42.603Z,2.50
2019-02-11T22:27:14.877Z,2.63
2019-02-11T22:29:43.982Z,3.20
2019-02-11T22:32:14.453Z,2.60
2019-02-11T22:34:43.533Z,3.80
2019-02-11T22:37:12.641Z,2.67
2019-02-11T22:39:45.093Z,3.23
2019-02-11T22:42:15.368Z,2.30
2019-02-11T22:44:46.172Z,2.93
2019-02-11T22:47:23.666Z,2.77
2019-02-11T22:49:53.977Z,2.60
2019-02-11T22:52:29.170Z,2.60
2019-02-11T22:55:00.622Z,2.87
2019-02-11T22:57:29.707Z,3.33
2019-02-11T23:00:00.624Z,2.80
2019-02-11T23:02:29.819Z,3.33
2019-02-11T23:04:58.929Z,3.63
2019-02-11T23:07:29.810Z,3.90
2019-02-11T23:09:58.934Z,4.20
2019-02-11T23:12:29.232Z,3.90
2019-02-11T23:14:58.333Z,4.37
2019-02-11T23:17:29.561Z,4.50
2019-02-11T23:20:01.166Z,4.27
2019-02-11T23:22:30.544Z,3.80
2019-02-11T23:25:01.047Z,3.80
2019-02-11T23:27:35.243Z,4.20
2019-02-11T23:30:13.082Z,3.80
2019-02-11T23:32:37.195Z,3.00
2019-02-11T23:35:09.048Z,3.93
2019-02-11T23:37:38.154Z,4.63
2019-02-11T23:40:07.672Z,4.23
2019-02-11T23:42:36.997Z,4.40
2019-02-11T23:45:10.987Z,4.00
2019-02-11T23:47:41.361Z,5.20
2019-02-11T23:50:11.453Z,4.70
2019-02-11T23:52:44.944Z,4.37
2019-02-11T23:55:14.521Z,5.90
2019-02-11T23:57:46.805Z,3.37
